createdAt,value
2019-06-26T00:03:26.528Z,26.00
2019-06-26T00:08:29.962Z,25.90
2019-06-26T00:13:33.385Z,26.00
2019-06-26T00:18:36.816Z,25.90
2019-06-26T00:23:40.245Z,25.80
2019-06-26T00:28:43.666Z,25.70
2019-06-26T00:33:47.101Z,25.70
2019-06-26T00:38:50.560Z,25.60
2019-06-26T00:43:54.029Z,25.40
2019-06-26T00:48:57.473Z,25.40
2019-06-26T00:54:00.881Z,25.40
2019-06-26T00:59:04.381Z,25.30
2019-06-26T01:04:15.496Z,25.40
2019-06-26T01:09:18.928Z,25.10
2019-06-26T01:14:22.348Z,25.10
2019-06-26T01:19:25.781Z,25.20
2019-06-26T01:24:29.569Z,24.90
2019-06-26T01:29:33.008Z,24.80
2019-06-26T01:34:36.419Z,24.70
2019-06-26T01:39:39.840Z,24.50
2019-06-26T01:44:43.265Z,24.30
2019-06-26T01:49:46.672Z,24.20
2019-06-26T01:54:50.100Z,24.10
2019-06-26T01:59:53.508Z,24.00
2019-06-26T02:04:56.939Z,23.90
2019-06-26T02:10:00.348Z,23.90
2019-06-26T02:15:06.184Z,23.80
2019-06-26T02:20:09.741Z,23.90
2019-06-26T02:25:13.236Z,23.90
2019-06-26T02:30:16.815Z,23.80
2019-06-26T02:35:20.242Z,23.60
2019-06-26T02:40:23.793Z,23.50
2019-06-26T02:45:27.223Z,23.30
2019-06-26T02:50:30.631Z,23.40
2019-06-26T02:55:34.194Z,23.30
2019-06-26T03:00:37.613Z,23.10
2019-06-26T03:05:41.035Z,23.20
2019-06-26T03:10:44.458Z,23.10
2019-06-26T03:15:50.450Z,23.20
2019-06-26T03:20:57.778Z,23.00
2019-06-26T03:26:01.187Z,22.90
2019-06-26T03:31:05.161Z,22.90
2019-06-26T03:36:08.806Z,23.10
2019-06-26T03:41:12.231Z,23.10
2019-06-26T03:46:15.887Z,23.20
2019-06-26T03:51:19.303Z,23.30
2019-06-26T03:56:22.745Z,23.40
2019-06-26T04:01:26.222Z,23.50
2019-06-26T04:06:29.651Z,23.60
2019-06-26T04:11:33.063Z,23.70
2019-06-26T04:16:36.483Z,23.90
2019-06-26T04:21:39.908Z,24.70
2019-06-26T04:26:43.321Z,25.40
2019-06-26T04:31:46.740Z,25.90
2019-06-26T04:36:50.169Z,26.40
2019-06-26T04:41:53.588Z,26.60
2019-06-26T04:46:56.999Z,27.20
2019-06-26T04:52:00.427Z,27.30
2019-06-26T04:57:04.317Z,27.40
2019-06-26T05:02:07.744Z,27.70
2019-06-26T05:07:11.147Z,27.70
2019-06-26T05:12:14.632Z,28.40
2019-06-26T05:17:18.061Z,28.70
2019-06-26T05:22:21.539Z,29.50
2019-06-26T05:27:24.966Z,29.50
2019-06-26T05:32:28.388Z,29.60
2019-06-26T05:37:31.803Z,29.70
2019-06-26T05:42:35.225Z,30.30
2019-06-26T05:47:38.955Z,30.90
2019-06-26T05:52:43.155Z,31.50
2019-06-26T05:57:48.551Z,31.40
2019-06-26T06:02:54.025Z,31.70
2019-06-26T06:07:57.509Z,32.30
2019-06-26T06:13:00.952Z,32.20
2019-06-26T06:18:04.363Z,31.50
2019-06-26T06:23:07.801Z,32.10
2019-06-26T06:28:11.218Z,32.90
2019-06-26T06:33:14.631Z,33.40
2019-06-26T06:38:18.048Z,32.90
2019-06-26T06:43:21.708Z,33.00
2019-06-26T06:48:25.177Z,32.50
2019-06-26T06:53:28.679Z,33.20
2019-06-26T06:58:32.112Z,33.40
2019-06-26T07:03:35.595Z,32.40
2019-06-26T07:08:39.028Z,32.40
2019-06-26T07:13:42.453Z,31.50
2019-06-26T07:18:45.952Z,31.80
2019-06-26T07:23:49.362Z,32.00
2019-06-26T07:28:52.823Z,32.70
2019-06-26T07:33:56.284Z,30.90
2019-06-26T07:38:59.744Z,30.90
2019-06-26T07:44:03.210Z,31.60
2019-06-26T07:49:06.663Z,30.70
2019-06-26T07:54:10.078Z,31.00
2019-06-26T07:59:13.514Z,30.70
2019-06-26T08:04:16.932Z,29.90
2019-06-26T08:09:20.428Z,29.00
2019-06-26T08:14:23.856Z,28.40
2019-06-26T08:19:27.289Z,28.20
2019-06-26T08:24:30.707Z,27.60
2019-06-26T08:29:34.324Z,27.30
2019-06-26T08:34:37.743Z,26.70
2019-06-26T08:39:41.188Z,26.40
2019-06-26T08:44:44.629Z,26.30
2019-06-26T08:49:48.067Z,26.60
2019-06-26T08:54:51.506Z,26.60
2019-06-26T08:59:55.080Z,26.80
2019-06-26T09:04:58.511Z,26.90
2019-06-26T09:10:02.078Z,27.50
2019-06-26T09:15:09.527Z,28.20
2019-06-26T09:20:15.659Z,28.00
2019-06-26T09:25:22.213Z,28.60
2019-06-26T09:30:24.604Z,29.70
2019-06-26T09:35:28.068Z,31.30
2019-06-26T09:40:32.236Z,32.20
2019-06-26T09:45:35.957Z,32.00
2019-06-26T09:50:39.371Z,33.60
2019-06-26T09:55:42.803Z,34.40
2019-06-26T10:00:46.216Z,32.80
2019-06-26T10:05:49.640Z,34.10
2019-06-26T10:10:53.237Z,34.10
2019-06-26T10:16:00.324Z,33.80
2019-06-26T10:21:01.916Z,34.10
2019-06-26T10:26:06.518Z,34.50
2019-06-26T10:31:10.296Z,35.80
2019-06-26T10:36:13.872Z,35.40
2019-06-26T10:41:17.304Z,35.40
2019-06-26T10:46:20.735Z,34.40
2019-06-26T10:51:24.151Z,33.80
2019-06-26T10:56:28.812Z,34.10
2019-06-26T11:01:32.376Z,33.80
2019-06-26T11:06:37.163Z,33.80
2019-06-26T11:11:40.867Z,34.30
2019-06-26T11:16:44.280Z,34.50
2019-06-26T11:21:47.692Z,33.50
2019-06-26T11:26:51.118Z,33.90
2019-06-26T11:31:54.804Z,33.80
2019-06-26T11:37:03.631Z,33.50
2019-06-26T11:42:03.436Z,32.90
2019-06-26T11:47:06.855Z,32.90
2019-06-26T11:52:10.545Z,32.20
2019-06-26T11:57:13.944Z,31.90
2019-06-26T12:02:17.461Z,31.90
2019-06-26T12:07:20.975Z,31.10
2019-06-26T12:12:24.389Z,30.30
2019-06-26T12:17:27.807Z,30.20
2019-06-26T12:22:31.237Z,30.10
2019-06-26T12:27:34.743Z,30.00
2019-06-26T12:32:42.163Z,30.10
2019-06-26T12:37:43.321Z,29.90
2019-06-26T12:42:47.026Z,29.90
2019-06-26T12:47:50.434Z,29.70
2019-06-26T12:52:53.851Z,30.50
2019-06-26T12:58:11.897Z,31.10
2019-06-26T13:03:02.455Z,31.20
2019-06-26T13:08:05.935Z,31.30
2019-06-26T13:13:09.349Z,29.80
2019-06-26T13:18:12.785Z,29.10
2019-06-26T13:23:16.707Z,29.10
2019-06-26T13:28:20.144Z,29.10
2019-06-26T13:33:23.561Z,29.20
2019-06-26T13:38:27.385Z,29.00
2019-06-26T13:43:30.855Z,28.90
2019-06-26T13:48:34.275Z,28.80
2019-06-26T13:53:37.688Z,28.60
2019-06-26T13:58:41.100Z,28.80
2019-06-26T14:03:44.595Z,28.40
2019-06-26T14:08:48.016Z,28.40
2019-06-26T14:13:51.439Z,28.20
2019-06-26T14:18:54.843Z,28.50
2019-06-26T14:23:58.252Z,28.20
2019-06-26T14:29:01.666Z,28.00
2019-06-26T14:34:05.336Z,27.80
2019-06-26T14:39:09.552Z,27.60
2019-06-26T14:44:13.124Z,27.30
2019-06-26T14:49:16.629Z,27.50
2019-06-26T14:54:20.064Z,27.50
2019-06-26T14:59:25.017Z,27.40
2019-06-26T15:04:28.479Z,27.60
2019-06-26T15:09:31.890Z,27.60
2019-06-26T15:14:35.355Z,27.00
2019-06-26T15:19:38.897Z,26.50
2019-06-26T15:24:42.337Z,26.40
2019-06-26T15:29:46.375Z,26.60
2019-06-26T15:39:22.416Z,26.60
2019-06-26T15:44:26.134Z,26.60
2019-06-26T15:49:29.532Z,26.60
2019-06-26T15:54:33.015Z,26.40
2019-06-26T15:59:36.423Z,26.30
2019-06-26T16:04:39.888Z,26.10
2019-06-26T16:09:43.312Z,26.20
2019-06-26T16:14:46.799Z,26.30
2019-06-26T16:19:50.272Z,26.30
2019-06-26T16:24:53.987Z,26.30
2019-06-26T16:29:57.515Z,26.20
2019-06-26T16:35:01.019Z,26.30
2019-06-26T16:40:06.389Z,26.10
2019-06-26T16:45:10.158Z,26.00
2019-06-26T16:50:14.165Z,26.00
2019-06-26T16:55:18.371Z,26.00
2019-06-26T17:00:22.672Z,25.60
2019-06-26T17:05:27.079Z,25.80
2019-06-26T17:10:32.366Z,25.60
2019-06-26T17:15:35.809Z,25.40
2019-06-26T17:20:40.112Z,25.50
2019-06-26T17:25:43.540Z,25.40
2019-06-26T17:30:46.954Z,25.30
2019-06-26T17:35:50.674Z,25.10
2019-06-26T17:40:54.148Z,24.90
2019-06-26T17:45:57.556Z,25.20
2019-06-26T17:51:01.287Z,24.90
2019-06-26T17:56:04.995Z,24.30
2019-06-26T18:01:08.400Z,24.00
2019-06-26T18:06:11.811Z,23.70
2019-06-26T18:11:15.225Z,23.50
2019-06-26T18:16:18.713Z,23.30
2019-06-26T18:21:22.138Z,23.10
2019-06-26T18:26:25.545Z,23.20
2019-06-26T18:31:30.632Z,22.90
2019-06-26T18:36:34.100Z,23.00
2019-06-26T18:41:37.608Z,22.80
2019-06-26T18:46:41.035Z,22.30
2019-06-26T18:51:44.459Z,22.10
2019-06-26T18:56:47.867Z,21.90
2019-06-26T19:01:51.282Z,21.80
2019-06-26T19:06:54.717Z,21.70
2019-06-26T19:11:58.127Z,21.50
2019-06-26T19:17:01.771Z,21.20
2019-06-26T19:22:05.298Z,20.80
2019-06-26T19:27:08.869Z,20.60
2019-06-26T19:32:12.637Z,20.30
2019-06-26T19:37:16.105Z,20.30
2019-06-26T19:42:19.531Z,20.00
2019-06-26T19:47:23.079Z,19.90
2019-06-26T19:52:26.505Z,19.70
2019-06-26T19:57:29.916Z,19.60
2019-06-26T20:02:33.343Z,19.40
2019-06-26T20:07:36.755Z,19.10
2019-06-26T20:12:40.167Z,19.00
2019-06-26T20:17:43.844Z,18.80
2019-06-26T20:22:47.287Z,18.70
2019-06-26T20:27:56.665Z,18.40
2019-06-26T20:32:55.960Z,18.20
2019-06-26T20:37:59.372Z,18.00
2019-06-26T20:43:03.129Z,18.00
2019-06-26T20:48:06.540Z,17.90
2019-06-26T20:53:09.952Z,17.70
2019-06-26T20:58:13.375Z,17.70
2019-06-26T21:03:16.787Z,17.60
2019-06-26T21:08:20.208Z,17.50
2019-06-26T21:13:23.800Z,17.30
2019-06-26T21:19:55.287Z,17.20
2019-06-26T21:24:58.693Z,17.10
2019-06-26T21:30:02.189Z,17.20
2019-06-26T21:35:06.502Z,17.30
2019-06-26T21:40:10.534Z,17.50
2019-06-26T21:45:14.815Z,17.50
2019-06-26T21:50:18.231Z,17.40
2019-06-26T21:55:33.887Z,17.50
2019-06-26T22:00:28.602Z,17.70
2019-06-26T22:05:32.087Z,17.50
2019-06-26T22:10:35.665Z,17.30
2019-06-26T22:15:39.084Z,17.30
2019-06-26T22:20:42.630Z,17.40
2019-06-26T22:25:50.905Z,17.30
2019-06-26T22:30:51.212Z,17.30
2019-06-26T22:35:54.618Z,17.30
2019-06-26T22:40:58.228Z,17.40
2019-06-26T22:46:01.655Z,17.30
2019-06-26T22:51:05.164Z,17.20
2019-06-26T22:56:08.600Z,17.10
2019-06-26T23:01:12.080Z,16.90
2019-06-26T23:06:15.500Z,17.20
2019-06-26T23:11:19.021Z,17.40
2019-06-26T23:16:22.469Z,17.30
2019-06-26T23:21:25.904Z,17.30
2019-06-26T23:26:29.338Z,17.10
2019-06-26T23:31:32.757Z,17.30
2019-06-26T23:36:36.188Z,17.30
2019-06-26T23:41:39.608Z,17.20
2019-06-26T23:46:43.030Z,17.10
2019-06-26T23:51:46.457Z,17.30
2019-06-26T23:56:49.957Z,17.30
